Time;durP1;ratioP1;P1;durP2;ratioP2;P2;SDS_P1;SDS_P2;PMS_P1;PMS_P2;Temp;Humidity;BMP_temperature;BMP_pressure;BME280_temperature;BME280_humidity;BME280_pressure;Samples;Min_cycle;Max_cycle;Signal;HPM_P1;HPM_P2
2021/12/01 00:00:51;;;;;;;8.93;6.75;;;;;;;8.98;100.00;100194.44;5093857;28;20152;-72
2021/12/01 00:03:17;;;;;;;9.27;7.65;;;;;;;8.93;100.00;100184.91;5088350;28;20076;-72
2021/12/01 00:05:42;;;;;;;6.32;5.18;;;;;;;8.89;100.00;100168.56;5090659;28;20033;-73
2021/12/01 00:08:09;;;;;;;7.88;6.07;;;;;;;8.93;100.00;100165.25;5092408;28;20551;-72
2021/12/01 00:10:35;;;;;;;6.28;5.55;;;;;;;8.90;100.00;100147.22;5090254;28;20063;-71
2021/12/01 00:13:04;;;;;;;6.43;5.65;;;;;;;8.94;100.00;100150.72;5094033;28;20024;-72
2021/12/01 00:15:29;;;;;;;6.65;5.90;;;;;;;8.91;100.00;100136.13;5089707;28;20069;-72
2021/12/01 00:17:55;;;;;;;6.78;5.47;;;;;;;8.89;100.00;100122.41;5089978;28;20031;-70
2021/12/01 00:20:21;;;;;;;6.93;5.40;;;;;;;8.86;100.00;100112.97;5089848;28;20039;-72
2021/12/01 00:22:47;;;;;;;7.03;5.20;;;;;;;8.91;100.00;100113.03;5098603;28;20391;-71
2021/12/01 00:25:15;;;;;;;4.60;3.95;;;;;;;8.91;100.00;100097.66;5086694;28;20028;-72
2021/12/01 00:27:42;;;;;;;7.68;4.88;;;;;;;8.86;100.00;100092.44;5091381;28;20105;-71
2021/12/01 00:30:09;;;;;;;9.90;4.32;;;;;;;8.90;100.00;100088.25;5094546;28;20179;-71
2021/12/01 00:32:35;;;;;;;8.07;4.90;;;;;;;8.89;100.00;100083.09;5093131;28;20387;-70
2021/12/01 00:35:01;;;;;;;4.88;3.97;;;;;;;8.92;100.00;100075.44;5092669;28;20050;-71
2021/12/01 00:37:27;;;;;;;6.25;3.97;;;;;;;8.92;100.00;100054.94;5095218;28;20039;-71
2021/12/01 00:39:53;;;;;;;5.30;4.38;;;;;;;8.91;100.00;100059.19;5097000;28;20020;-71
2021/12/01 00:42:19;;;;;;;5.50;4.13;;;;;;;8.90;100.00;100060.03;5095403;28;20137;-71
2021/12/01 00:44:47;;;;;;;4.85;4.15;;;;;;;8.94;100.00;100056.72;5092960;28;20031;-71
2021/12/01 00:47:14;;;;;;;4.90;3.95;;;;;;;8.89;100.00;100044.63;5092973;28;20070;-72
2021/12/01 00:49:41;;;;;;;3.95;2.67;;;;;;;8.96;100.00;100041.34;5094401;28;20767;-71
2021/12/01 00:52:07;;;;;;;5.55;4.40;;;;;;;8.86;100.00;100041.19;5093995;28;20155;-71
2021/12/01 00:54:33;;;;;;;5.60;4.55;;;;;;;8.86;100.00;100037.75;5096420;28;20127;-71
2021/12/01 00:56:58;;;;;;;6.30;4.30;;;;;;;8.84;100.00;100035.13;5096318;28;20530;-72
2021/12/01 00:59:24;;;;;;;5.85;4.07;;;;;;;8.83;100.00;100033.41;5095911;28;20505;-71
2021/12/01 01:01:50;;;;;;;5.72;3.72;;;;;;;8.82;100.00;100023.13;5095652;28;20023;-72
2021/12/01 01:04:16;;;;;;;6.47;3.70;;;;;;;8.93;100.00;100013.09;5097863;28;20932;-72
2021/12/01 01:06:42;;;;;;;5.85;3.70;;;;;;;8.84;100.00;100018.88;5097159;28;20028;-72
2021/12/01 01:09:09;;;;;;;4.88;3.97;;;;;;;8.81;100.00;100008.59;5092576;28;20038;-72
2021/12/01 01:17:07;;;;;;;4.05;3.38;;;;;;;8.79;100.00;99995.72;5090658;28;20062;-72
2021/12/01 01:19:35;;;;;;;5.80;3.97;;;;;;;8.78;100.00;99990.56;5095743;28;20032;-71
2021/12/01 01:22:01;;;;;;;4.82;3.67;;;;;;;8.79;100.00;99993.16;5097067;28;20084;-72
2021/12/01 01:24:28;;;;;;;6.25;4.00;;;;;;;8.73;100.00;99981.91;5092233;28;20452;-72
2021/12/01 01:26:56;;;;;;;6.60;3.70;;;;;;;8.75;100.00;99978.56;5096726;28;20035;-72
2021/12/01 01:29:22;;;;;;;4.25;3.63;;;;;;;8.71;100.00;99969.06;5094249;28;20123;-72
2021/12/01 01:31:52;;;;;;;4.47;3.33;;;;;;;8.73;100.00;99969.09;5096585;28;20537;-72
2021/12/01 01:34:18;;;;;;;7.38;4.53;;;;;;;8.66;100.00;99965.53;5092362;28;20077;-72
2021/12/01 01:36:43;;;;;;;4.70;4.07;;;;;;;8.72;100.00;99952.84;5098623;28;20032;-72
2021/12/01 01:39:09;;;;;;;5.20;3.97;;;;;;;8.74;100.00;99968.28;5091568;28;20023;-71
2021/12/01 01:41:34;;;;;;;6.20;4.53;;;;;;;8.66;100.00;99949.28;5091671;28;20433;-72
2021/12/01 01:44:00;;;;;;;5.35;4.82;;;;;;;8.69;100.00;99965.59;5095843;28;20109;-72
2021/12/01 01:46:31;;;;;;;8.20;5.82;;;;;;;8.63;100.00;99951.81;5089587;28;20059;-71
2021/12/01 01:49:05;;;;;;;7.43;6.05;;;;;;;8.60;100.00;99944.91;5086905;28;20111;-72
2021/12/01 01:51:31;;;;;;;6.95;6.10;;;;;;;8.57;100.00;99927.78;5089713;28;20047;-72
2021/12/01 01:53:57;;;;;;;7.88;5.20;;;;;;;8.70;100.00;99941.72;5089979;28;20070;-73
2021/12/01 01:56:23;;;;;;;7.00;6.30;;;;;;;8.59;100.00;99935.50;5091832;28;20121;-73
2021/12/01 01:58:48;;;;;;;7.68;6.18;;;;;;;8.52;100.00;99921.69;5096833;28;21603;-72
2021/12/01 02:03:51;;;;;;;8.57;7.18;;;;;;;8.47;100.00;99907.91;5092400;28;20479;-72
2021/12/01 02:06:22;;;;;;;6.55;5.22;;;;;;;8.54;100.00;99914.03;5094257;28;20549;-72
2021/12/01 02:08:49;;;;;;;7.20;6.40;;;;;;;8.54;100.00;99898.66;5088084;27;20032;-72
2021/12/01 02:11:17;;;;;;;9.35;6.93;;;;;;;8.46;100.00;99893.38;5093242;28;20036;-72
2021/12/01 02:13:44;;;;;;;7.55;6.28;;;;;;;8.47;100.00;99877.16;5096941;28;20016;-72
2021/12/01 02:16:11;;;;;;;7.28;6.13;;;;;;;8.39;100.00;99878.72;5094253;28;20088;-72
2021/12/01 02:18:37;;;;;;;5.90;5.32;;;;;;;8.47;100.00;99872.03;5094120;28;20059;-72
2021/12/01 02:21:06;;;;;;;6.90;6.00;;;;;;;8.32;100.00;99877.69;5092925;28;20032;-72
2021/12/01 02:23:37;;;;;;;10.55;5.90;;;;;;;8.31;100.00;99869.94;5099426;28;20024;-72
2021/12/01 02:26:04;;;;;;;6.88;5.78;;;;;;;8.25;100.00;99847.66;5094170;28;20386;-73
2021/12/01 02:28:30;;;;;;;3.38;3.08;;;;;;;8.51;100.00;99848.22;5096291;28;20016;-72
2021/12/01 02:30:56;;;;;;;5.75;5.15;;;;;;;8.25;100.00;99832.28;5091183;28;20433;-72
2021/12/01 02:33:22;;;;;;;4.53;4.13;;;;;;;8.28;100.00;99832.34;5091652;28;20487;-72
2021/12/01 02:35:47;;;;;;;4.05;3.65;;;;;;;8.32;100.00;99831.59;5094456;28;20036;-72
2021/12/01 02:38:13;;;;;;;4.80;3.90;;;;;;;8.28;100.00;99821.22;5089706;28;20036;-71
2021/12/01 02:40:38;;;;;;;5.13;3.90;;;;;;;8.27;100.00;99801.59;5098655;28;20038;-72
2021/12/01 02:43:03;;;;;;;5.00;4.50;;;;;;;8.12;100.00;99802.13;5097567;28;20522;-71
2021/12/01 02:45:29;;;;;;;5.90;3.60;;;;;;;8.18;100.00;99786.00;5095149;28;20043;-71
2021/12/01 02:47:54;;;;;;;5.45;4.03;;;;;;;8.12;100.00;99783.31;5087798;28;20040;-73
2021/12/01 02:50:20;;;;;;;4.07;3.03;;;;;;;8.12;100.00;99779.06;5091693;28;20046;-71
2021/12/01 02:52:46;;;;;;;6.22;3.60;;;;;;;8.07;100.00;99771.31;5089823;27;20024;-72
2021/12/01 02:55:15;;;;;;;4.45;3.25;;;;;;;8.17;100.00;99777.47;5089843;28;20054;-73
2021/12/01 02:57:46;;;;;;;5.32;3.70;;;;;;;8.11;100.00;99772.22;5092185;28;20111;-72
2021/12/01 03:00:12;;;;;;;4.75;3.28;;;;;;;8.08;100.00;99761.94;5087146;28;20024;-73
2021/12/01 03:02:38;;;;;;;4.47;2.60;;;;;;;8.11;100.00;99773.94;5091327;28;20031;-70
2021/12/01 03:05:05;;;;;;;4.93;3.20;;;;;;;7.96;100.00;99754.88;5092200;28;20047;-72
2021/12/01 03:07:32;;;;;;;5.10;3.47;;;;;;;8.01;100.00;99757.53;5096021;28;20035;-72
2021/12/01 03:09:57;;;;;;;4.90;3.72;;;;;;;8.04;100.00;99758.44;5095034;28;20108;-71
2021/12/01 03:12:28;;;;;;;3.60;3.15;;;;;;;8.02;100.00;99725.97;5088633;28;20051;-73
2021/12/01 03:14:53;;;;;;;5.22;3.80;;;;;;;7.90;100.00;99734.25;5093716;28;20036;-72
2021/12/01 03:17:19;;;;;;;6.43;3.45;;;;;;;7.89;100.00;99722.31;5092175;28;20032;-72
2021/12/01 03:19:44;;;;;;;4.60;3.72;;;;;;;7.89;100.00;99718.88;5090198;28;20024;-73
2021/12/01 03:22:14;;;;;;;3.72;3.38;;;;;;;7.87;100.00;99723.94;5088856;28;20024;-73
2021/12/01 03:24:39;;;;;;;;;;;;;;;7.87;100.00;99716.28;5091361;28;20042;-73
2021/12/01 03:27:05;;;;;;;7.47;4.13;;;;;;;7.81;100.00;99705.91;5098968;28;20357;-72
2021/12/01 03:29:31;;;;;;;4.20;3.50;;;;;;;7.88;100.00;99705.19;5090235;28;20044;-72
2021/12/01 03:31:56;;;;;;;5.20;4.30;;;;;;;7.80;100.00;99694.81;5092008;28;20042;-72
2021/12/01 03:34:23;;;;;;;6.45;4.68;;;;;;;7.73;100.00;99692.09;5094802;28;20082;-72
2021/12/01 03:36:48;;;;;;;5.15;4.65;;;;;;;7.79;100.00;99687.97;5090158;28;20039;-72
2021/12/01 03:39:14;;;;;;;4.97;4.20;;;;;;;7.77;100.00;99678.53;5091369;28;20035;-72
2021/12/01 03:41:40;;;;;;;4.80;4.20;;;;;;;7.82;100.00;99659.00;5087100;28;20028;-72
2021/12/01 03:44:05;;;;;;;5.40;3.88;;;;;;;7.88;100.00;99671.91;5094880;28;20115;-72
2021/12/01 03:46:31;;;;;;;6.30;4.00;;;;;;;7.80;100.00;99671.78;5093380;28;20073;-72
2021/12/01 03:48:56;;;;;;;4.85;3.80;;;;;;;7.78;100.00;99658.09;5089541;28;20020;-71
2021/12/01 03:51:22;;;;;;;4.47;4.07;;;;;;;7.80;100.00;99650.44;5091112;28;20111;-73
2021/12/01 03:53:49;;;;;;;4.40;3.85;;;;;;;7.74;100.00;99646.06;5094842;28;20051;-72
2021/12/01 03:56:14;;;;;;;5.20;4.28;;;;;;;7.74;100.00;99629.84;5099140;28;20031;-71
2021/12/01 03:58:40;;;;;;;4.60;3.63;;;;;;;7.70;100.00;99622.94;5090167;28;20024;-72
2021/12/01 04:01:10;;;;;;;5.32;4.68;;;;;;;7.64;100.00;99618.56;5094282;28;20036;-72
2021/12/01 04:03:35;;;;;;;6.38;4.88;;;;;;;7.67;100.00;99607.53;5096899;28;20036;-72
2021/12/01 04:06:01;;;;;;;4.60;3.63;;;;;;;7.66;100.00;99598.16;5103537;28;20504;-73
2021/12/01 04:08:26;;;;;;;5.35;3.72;;;;;;;7.67;100.00;99602.44;5097670;27;20212;-72
2021/12/01 04:10:52;;;;;;;6.90;4.18;;;;;;;7.67;100.00;99608.41;5095851;28;20032;-73
2021/12/01 04:13:17;;;;;;;3.92;3.50;;;;;;;7.74;100.00;99615.34;5097431;28;20024;-73
2021/12/01 04:15:43;;;;;;;5.78;4.28;;;;;;;7.60;100.00;99585.25;5096887;28;20028;-72
2021/12/01 04:18:08;;;;;;;6.40;4.60;;;;;;;7.60;100.00;99575.00;5093608;28;20028;-73
2021/12/01 04:20:34;;;;;;;3.30;3.00;;;;;;;7.79;100.00;99567.69;5094013;28;20039;-72
2021/12/01 04:22:59;;;;;;;4.88;4.03;;;;;;;7.71;100.00;99558.16;5091334;28;20138;-72
2021/12/01 04:25:25;;;;;;;5.60;4.28;;;;;;;7.75;100.00;99565.03;5099963;28;20027;-73
2021/12/01 04:27:50;;;;;;;5.15;4.65;;;;;;;7.70;100.00;99556.41;5097910;28;20538;-72
2021/12/01 04:30:23;;;;;;;5.75;4.50;;;;;;;7.70;100.00;99539.38;5096752;28;20043;-72
2021/12/01 04:32:50;;;;;;;5.55;3.80;;;;;;;7.72;100.00;99524.94;5095289;28;20402;-72
2021/12/01 04:35:16;;;;;;;5.95;4.88;;;;;;;7.61;100.00;99525.56;5097960;28;20027;-72
2021/12/01 04:37:42;;;;;;;4.68;3.92;;;;;;;7.69;100.00;99509.50;5096615;28;20128;-72
2021/12/01 04:40:08;;;;;;;6.07;4.20;;;;;;;7.62;100.00;99505.13;5092358;28;20113;-72
2021/12/01 04:42:35;;;;;;;4.53;3.75;;;;;;;7.77;100.00;99505.41;5097047;28;20039;-73
2021/12/01 04:45:02;;;;;;;6.20;4.35;;;;;;;7.75;100.00;99488.28;5094805;28;20024;-72
2021/12/01 04:47:33;;;;;;;4.82;4.28;;;;;;;7.61;100.00;99489.75;5090466;28;20031;-73
2021/12/01 04:49:59;;;;;;;5.30;4.10;;;;;;;7.61;100.00;99487.19;5096210;28;20024;-74
2021/12/01 04:52:24;;;;;;;4.68;3.38;;;;;;;7.63;100.00;99471.00;5098838;28;20106;-72
2021/12/01 04:54:50;;;;;;;4.35;2.90;;;;;;;7.63;100.00;99483.81;5098778;28;20394;-73
2021/12/01 04:57:16;;;;;;;5.82;3.63;;;;;;;7.57;100.00;99477.72;5092867;28;20036;-72
2021/12/01 04:59:42;;;;;;;4.38;3.17;;;;;;;7.58;100.00;99480.31;5096908;28;20486;-73
2021/12/01 05:02:07;;;;;;;4.80;3.67;;;;;;;7.57;100.00;99470.91;5094159;28;20039;-73
2021/12/01 05:04:33;;;;;;;5.68;3.88;;;;;;;7.42;100.00;99450.19;5099564;28;20044;-73
2021/12/01 05:06:58;;;;;;;5.82;3.88;;;;;;;7.48;100.00;99457.97;5091779;28;20036;-73
2021/12/01 05:09:24;;;;;;;4.70;3.92;;;;;;;7.37;100.00;99474.81;5097355;28;20034;-73
2021/12/01 05:11:49;;;;;;;3.40;2.97;;;;;;;7.40;100.00;99459.50;5094209;28;20032;-73
2021/12/01 05:14:15;;;;;;;4.47;3.15;;;;;;;7.40;100.00;99439.94;5091617;28;20030;-74
2021/12/01 05:16:41;;;;;;;4.65;3.15;;;;;;;7.40;100.00;99427.16;5094159;28;20104;-73
2021/12/01 05:19:08;;;;;;;5.07;2.85;;;;;;;7.38;100.00;99425.38;5093756;28;20085;-74
2021/12/01 05:21:33;;;;;;;5.03;3.75;;;;;;;7.37;100.00;99428.78;5096320;28;20023;-73
2021/12/01 05:24:00;;;;;;;4.72;3.10;;;;;;;7.34;100.00;99429.59;5098242;28;20028;-73
2021/12/01 05:26:25;;;;;;;3.85;3.20;;;;;;;7.25;100.00;99429.41;5098559;28;20028;-74
2021/12/01 05:28:52;;;;;;;5.00;3.60;;;;;;;7.25;100.00;99417.50;5090940;28;20462;-73
2021/12/01 05:31:18;;;;;;;4.78;3.47;;;;;;;7.25;100.00;99424.31;5091985;28;20115;-73
2021/12/01 05:33:43;;;;;;;4.43;3.30;;;;;;;7.27;100.00;99407.28;5095561;28;20028;-73
2021/12/01 05:36:10;;;;;;;3.28;2.30;;;;;;;7.31;100.00;99426.97;5089396;28;20102;-73
2021/12/01 05:38:35;;;;;;;3.22;2.20;;;;;;;7.33;100.00;99403.97;5092744;28;20077;-73
2021/12/01 05:41:02;;;;;;;2.75;2.47;;;;;;;7.28;100.00;99408.16;5099259;28;20036;-72
2021/12/01 05:43:28;;;;;;;3.38;2.20;;;;;;;7.24;100.00;99390.22;5092283;28;20035;-72
2021/12/01 05:45:53;;;;;;;6.18;2.45;;;;;;;7.33;100.00;99389.50;5096110;28;20494;-72
2021/12/01 05:48:18;;;;;;;3.70;2.28;;;;;;;7.26;100.00;99395.34;5092059;28;20043;-74
2021/12/01 05:50:44;;;;;;;2.88;2.10;;;;;;;7.33;100.00;99380.97;5093495;28;20436;-73
2021/12/01 05:53:10;;;;;;;3.00;1.92;;;;;;;7.31;100.00;99386.06;5094691;28;20051;-73
2021/12/01 05:55:37;;;;;;;2.85;1.80;;;;;;;7.24;100.00;99371.44;5093574;28;20360;-74
2021/12/01 05:58:02;;;;;;;1.90;1.75;;;;;;;7.17;100.00;99369.63;5096170;28;20024;-73
2021/12/01 06:00:28;;;;;;;1.90;1.58;;;;;;;7.15;100.00;99355.94;5094837;28;20035;-73
2021/12/01 06:02:54;;;;;;;2.28;1.50;;;;;;;7.20;100.00;99344.97;5090374;28;20053;-73
2021/12/01 06:05:21;;;;;;;1.95;1.52;;;;;;;7.21;100.00;99340.72;5071082;28;20067;-72
2021/12/01 06:07:48;;;;;;;1.60;1.40;;;;;;;7.19;100.00;99339.84;5084549;28;20034;-73
2021/12/01 06:10:14;;;;;;;2.17;1.60;;;;;;;7.18;100.00;99335.56;5085335;28;20096;-74
2021/12/01 06:12:41;;;;;;;1.63;1.20;;;;;;;7.30;100.00;99329.78;5089128;28;20028;-74
2021/12/01 06:15:11;;;;;;;1.27;1.17;;;;;;;7.29;100.00;99312.75;5093323;28;20073;-73
2021/12/01 06:17:37;;;;;;;4.75;1.90;;;;;;;7.17;100.00;99298.06;5091742;28;20035;-74
2021/12/01 06:20:04;;;;;;;3.15;1.90;;;;;;;7.16;100.00;99302.31;5090548;28;20036;-73
2021/12/01 06:22:30;;;;;;;1.88;1.52;;;;;;;7.22;100.00;99301.56;5093087;28;20078;-73
2021/12/01 06:24:55;;;;;;;1.92;1.73;;;;;;;7.16;100.00;99306.53;5094126;28;20478;-73
2021/12/01 06:27:22;;;;;;;2.30;1.70;;;;;;;7.19;100.00;99298.94;5071043;28;20020;-73
2021/12/01 06:29:48;;;;;;;1.92;1.73;;;;;;;7.22;100.00;99297.28;5089164;28;20031;-73
2021/12/01 06:32:14;;;;;;;2.90;1.90;;;;;;;7.19;100.00;99307.47;5095924;28;20126;-73
2021/12/01 06:34:41;;;;;;;2.22;1.95;;;;;;;7.24;100.00;99285.38;5066327;28;20082;-75
2021/12/01 06:37:07;;;;;;;2.53;1.70;;;;;;;7.15;100.00;99292.88;5077360;28;20166;-73
2021/12/01 06:39:33;;;;;;;2.22;2.03;;;;;;;7.19;100.00;99287.00;5084015;28;20870;-73
2021/12/01 06:41:58;;;;;;;1.85;1.65;;;;;;;7.17;100.00;99285.28;5075039;28;20543;-73
2021/12/01 06:44:24;;;;;;;3.45;2.10;;;;;;;7.20;100.00;99281.06;5082033;28;20036;-73
2021/12/01 06:46:50;;;;;;;2.90;2.05;;;;;;;7.26;100.00;99282.84;5083412;28;20024;-73
2021/12/01 06:49:16;;;;;;;4.03;2.47;;;;;;;7.28;100.00;99276.09;5085641;28;20028;-72
2021/12/01 06:51:41;;;;;;;2.45;2.25;;;;;;;7.34;100.00;99265.97;5082833;28;20588;-74
2021/12/01 06:54:07;;;;;;;2.50;2.25;;;;;;;7.16;100.00;99251.19;5080741;28;20020;-74
2021/12/01 06:56:32;;;;;;;4.15;2.35;;;;;;;7.19;100.00;99281.03;5079648;28;20385;-74
2021/12/01 06:58:57;;;;;;;2.03;1.58;;;;;;;7.25;100.00;99247.91;5080043;28;20070;-74
2021/12/01 07:01:23;;;;;;;3.97;1.98;;;;;;;7.33;100.00;99264.22;5083908;28;20032;-72
2021/12/01 07:03:48;;;;;;;3.58;2.70;;;;;;;7.30;100.00;99259.06;5083684;28;20047;-74
2021/12/01 07:06:14;;;;;;;3.47;2.30;;;;;;;7.26;100.00;99242.81;5076840;28;20037;-75
2021/12/01 07:08:40;;;;;;;4.35;2.65;;;;;;;7.35;100.00;99236.97;5083086;28;20085;-75
2021/12/01 07:11:05;;;;;;;3.97;2.42;;;;;;;7.32;100.00;99246.28;5063370;28;20048;-73
2021/12/01 07:13:33;;;;;;;3.40;2.90;;;;;;;7.30;100.00;99256.50;5079762;28;20066;-73
2021/12/01 07:16:00;;;;;;;4.93;2.75;;;;;;;7.33;100.00;99246.31;5078701;28;20039;-73
2021/12/01 07:18:25;;;;;;;3.78;2.83;;;;;;;7.38;100.00;99246.38;5085287;28;20547;-73
2021/12/01 07:20:51;;;;;;;4.15;3.08;;;;;;;7.41;100.00;99243.88;5082711;28;20035;-73
2021/12/01 07:23:16;;;;;;;4.32;2.80;;;;;;;7.39;100.00;99232.75;5080670;28;20097;-74
2021/12/01 07:25:42;;;;;;;2.90;2.53;;;;;;;7.40;100.00;99245.59;5084274;28;20036;-72
2021/12/01 07:28:08;;;;;;;9.63;3.55;;;;;;;7.39;100.00;99235.31;5081065;28;20027;-73
2021/12/01 07:30:35;;;;;;;3.42;2.95;;;;;;;7.39;100.00;99248.97;5080982;28;20081;-74
2021/12/01 07:33:01;;;;;;;5.05;3.88;;;;;;;7.41;100.00;99231.09;5079974;28;20119;-73
2021/12/01 07:35:26;;;;;;;4.82;3.95;;;;;;;7.42;100.00;99237.94;5081946;28;20054;-73
2021/12/01 07:37:53;;;;;;;4.88;4.10;;;;;;;7.41;100.00;99226.00;5076743;28;20043;-74
2021/12/01 07:40:19;;;;;;;7.55;6.00;;;;;;;7.47;100.00;99224.38;5080978;28;20051;-73
2021/12/01 07:42:44;;;;;;;5.93;4.72;;;;;;;7.47;100.00;99209.03;5080436;28;20155;-74
2021/12/01 07:45:11;;;;;;;7.68;6.43;;;;;;;7.55;100.00;99211.69;5080881;28;20593;-75
2021/12/01 07:47:36;;;;;;;6.07;5.47;;;;;;;7.52;100.00;99202.28;5082873;28;20111;-75
2021/12/01 07:50:04;;;;;;;14.10;4.93;;;;;;;7.55;100.00;99198.91;5080132;28;20107;-74
2021/12/01 07:52:30;;;;;;;6.38;5.10;;;;;;;7.58;100.00;99192.94;5079778;28;20081;-75
2021/12/01 07:54:56;;;;;;;6.43;4.55;;;;;;;7.57;100.00;99196.34;5080147;28;20441;-74
2021/12/01 07:57:21;;;;;;;6.82;4.32;;;;;;;7.61;100.00;99198.97;5078599;28;20037;-74
2021/12/01 07:59:47;;;;;;;4.25;3.80;;;;;;;7.67;100.00;99188.81;5083311;28;20025;-74
2021/12/01 08:02:12;;;;;;;5.82;3.90;;;;;;;7.62;100.00;99195.56;5079268;28;20390;-73
2021/12/01 08:04:38;;;;;;;4.28;3.83;;;;;;;7.67;100.00;99178.59;5081559;28;20075;-74
2021/12/01 08:07:04;;;;;;;4.90;4.32;;;;;;;7.74;100.00;99188.06;5081579;28;20041;-74
2021/12/01 08:09:29;;;;;;;4.70;4.15;;;;;;;7.72;100.00;99192.31;5080643;28;20035;-74
2021/12/01 08:11:56;;;;;;;5.70;4.32;;;;;;;7.68;100.00;99184.56;5081828;28;20043;-74
2021/12/01 08:14:22;;;;;;;5.28;4.05;;;;;;;7.66;100.00;99192.22;5065019;28;20045;-73
2021/12/01 08:16:54;;;;;;;6.78;5.43;;;;;;;7.69;100.00;99184.56;5082339;28;20043;-73
2021/12/01 08:19:21;;;;;;;5.28;4.40;;;;;;;7.69;100.00;99173.50;5079199;28;20032;-73
2021/12/01 08:21:49;;;;;;;6.75;5.35;;;;;;;7.66;100.00;99186.25;5079904;28;20036;-74
2021/12/01 08:24:15;;;;;;;8.15;5.97;;;;;;;7.61;100.00;99185.34;5081471;28;20326;-73
2021/12/01 08:26:43;;;;;;;8.77;5.80;;;;;;;7.64;100.00;99183.66;5066350;28;20036;-74
2021/12/01 08:29:10;;;;;;;6.28;5.35;;;;;;;7.73;100.00;99168.44;5075476;28;20039;-73
2021/12/01 08:31:36;;;;;;;7.32;5.80;;;;;;;7.66;100.00;99156.41;5090403;28;20051;-75
2021/12/01 08:34:01;;;;;;;5.70;4.88;;;;;;;7.58;100.00;99146.91;5052718;28;20036;-76
2021/12/01 08:36:27;;;;;;;6.50;5.25;;;;;;;7.69;100.00;99155.56;5083073;28;20019;-75
2021/12/01 08:38:53;;;;;;;7.75;6.30;;;;;;;7.73;100.00;99163.31;5085753;28;20033;-76
2021/12/01 08:41:19;;;;;;;7.20;6.20;;;;;;;7.70;100.00;99165.81;5086373;28;20491;-75
2021/12/01 08:43:46;;;;;;;5.88;5.20;;;;;;;7.76;100.00;99155.66;5048698;28;20059;-75
2021/12/01 08:46:12;;;;;;;9.02;6.82;;;;;;;7.81;100.00;99155.72;5080731;28;20085;-74
2021/12/01 08:48:41;;;;;;;10.13;6.97;;;;;;;7.82;100.00;99156.59;5078333;28;20039;-74
2021/12/01 08:51:07;;;;;;;;;;;;;;;7.86;100.00;99153.22;5083991;28;20501;-75
2021/12/01 08:53:35;;;;;;;8.00;5.72;;;;;;;7.89;100.00;99150.72;5082581;28;19912;-74
2021/12/01 08:56:03;;;;;;;6.70;5.43;;;;;;;7.97;100.00;99152.50;5086265;28;20031;-75
2021/12/01 08:58:29;;;;;;;8.07;5.47;;;;;;;8.05;100.00;99145.75;5084144;28;20717;-75
2021/12/01 09:00:55;;;;;;;6.03;4.90;;;;;;;8.10;100.00;99148.38;5089382;28;20035;-75
2021/12/01 09:03:23;;;;;;;5.72;5.10;;;;;;;8.06;100.00;99151.75;5088901;28;20531;-75
2021/12/01 09:05:49;;;;;;;5.88;5.00;;;;;;;8.01;100.00;99158.53;5085700;28;20031;-75
2021/12/01 09:08:17;;;;;;;9.27;5.63;;;;;;;7.96;100.00;99166.16;5069824;28;20123;-76
2021/12/01 09:10:52;;;;;;;9.07;6.60;;;;;;;7.89;100.00;99155.84;5088761;28;20363;-75
2021/12/01 09:13:19;;;;;;;9.65;6.55;;;;;;;7.86;100.00;99153.22;5087299;28;20520;-75
2021/12/01 09:15:46;;;;;;;12.10;6.80;;;;;;;7.80;100.00;99148.91;5087787;28;20081;-75
2021/12/01 09:18:11;;;;;;;9.20;7.60;;;;;;;7.83;100.00;99164.31;5086651;28;20032;-76
2021/12/01 09:20:37;;;;;;;8.80;7.18;;;;;;;7.87;100.00;99168.59;5091121;28;20020;-76
2021/12/01 09:23:03;;;;;;;8.75;7.85;;;;;;;7.76;100.00;99160.78;5090027;28;20078;-75
2021/12/01 09:25:30;;;;;;;7.97;7.20;;;;;;;7.87;100.00;99171.16;5071173;28;20505;-75
2021/12/01 09:27:56;;;;;;;8.13;7.30;;;;;;;7.86;100.00;99189.06;5081406;28;20022;-78
2021/12/01 09:30:21;;;;;;;7.90;7.10;;;;;;;7.87;100.00;99172.84;5088673;28;20115;-75
2021/12/01 09:32:47;;;;;;;9.77;7.40;;;;;;;7.81;100.00;99176.19;5086660;28;20032;-77
2021/12/01 09:35:19;;;;;;;8.80;7.10;;;;;;;7.74;100.00;99175.25;5086574;28;20036;-76
2021/12/01 09:37:45;;;;;;;9.23;7.13;;;;;;;7.80;100.00;99174.47;5090078;28;20028;-75
2021/12/01 09:40:17;;;;;;;8.85;7.90;;;;;;;7.74;100.00;99166.72;5093385;28;20035;-77
2021/12/01 09:42:49;;;;;;;8.35;6.40;;;;;;;7.85;100.00;99183.09;5094014;28;20051;-72
2021/12/01 09:45:16;;;;;;;9.18;4.47;;;;;;;7.72;100.00;99199.97;5088015;28;20097;-72
2021/12/01 09:47:42;;;;;;;9.20;2.20;;;;;;;7.60;100.00;99193.84;5086027;28;20024;-72
2021/12/01 09:50:08;;;;;;;7.32;1.60;;;;;;;7.45;100.00;99197.91;5084331;28;20040;-71
2021/12/01 09:52:33;;;;;;;8.73;1.85;;;;;;;7.38;100.00;99203.78;5082039;28;20035;-72
2021/12/01 09:54:59;;;;;;;8.07;1.70;;;;;;;7.30;100.00;99200.25;5081081;28;20020;-72
2021/12/01 09:57:25;;;;;;;12.98;1.90;;;;;;;7.36;100.00;99197.78;5083568;28;20067;-73
2021/12/01 09:59:50;;;;;;;7.28;1.88;;;;;;;7.45;100.00;99205.56;5084481;28;20397;-73
2021/12/01 10:02:21;;;;;;;8.27;1.70;;;;;;;7.76;100.00;99198.31;5084589;28;20069;-74
2021/12/01 10:04:47;;;;;;;12.05;1.90;;;;;;;7.85;100.00;99193.31;5084649;28;20134;-73
2021/12/01 10:07:24;;;;;;;9.05;1.70;;;;;;;7.82;100.00;99193.25;5086296;28;20111;-74
2021/12/01 10:09:52;;;;;;;14.13;2.00;;;;;;;7.82;100.00;99189.84;5083732;28;20089;-74
2021/12/01 10:12:18;;;;;;;11.85;1.67;;;;;;;7.82;100.00;99182.16;5087430;28;20062;-73
2021/12/01 10:14:48;;;;;;;7.45;1.20;;;;;;;8.15;100.00;99182.56;5074375;28;20032;-73
2021/12/01 10:17:16;;;;;;;10.65;1.75;;;;;;;8.75;100.00;99191.72;5087636;28;20027;-74
2021/12/01 10:19:41;;;;;;;15.30;1.85;;;;;;;8.92;100.00;99183.31;5065869;28;20180;-73
2021/12/01 10:22:11;;;;;;;13.95;1.55;;;;;;;8.62;99.14;99189.06;5068619;28;20478;-75
2021/12/01 10:24:39;;;;;;;11.95;1.55;;;;;;;8.73;100.00;99184.84;5081974;28;20496;-73
2021/12/01 10:27:12;;;;;;;12.80;1.73;;;;;;;8.76;100.00;99187.47;5084399;28;20159;-72
2021/12/01 10:29:44;;;;;;;14.23;1.70;;;;;;;9.30;99.18;99199.84;5087045;28;20065;-74
2021/12/01 10:32:10;;;;;;;12.63;1.63;;;;;;;9.34;99.65;99187.88;5080756;28;20074;-73
2021/12/01 10:34:43;;;;;;;10.75;1.30;;;;;;;9.05;96.63;99196.25;5081122;28;20019;-72
2021/12/01 10:37:31;;;;;;;11.48;1.20;;;;;;;9.54;99.66;99188.88;5085985;28;20020;-74
2021/12/01 10:40:12;;;;;;;8.93;1.23;;;;;;;10.17;94.66;99195.09;5079551;28;20036;-73
2021/12/01 10:42:59;;;;;;;7.78;1.17;;;;;;;10.51;92.51;99196.94;5084214;28;20572;-72
2021/12/01 10:45:28;;;;;;;5.07;1.02;;;;;;;10.04;87.48;99185.66;5083731;28;20073;-73
2021/12/01 10:47:54;;;;;;;7.18;0.88;;;;;;;9.38;89.55;99181.94;5077865;28;20020;-72
2021/12/01 10:50:24;;;;;;;5.03;0.88;;;;;;;8.99;93.16;99178.25;5083301;28;20031;-76
2021/12/01 10:52:52;;;;;;;5.80;0.80;;;;;;;8.73;93.96;99164.34;5082719;28;20028;-73
2021/12/01 10:55:25;;;;;;;8.27;1.00;;;;;;;8.47;94.69;99174.38;5084025;28;20545;-73
2021/12/01 10:57:57;;;;;;;5.05;0.73;;;;;;;8.37;96.85;99181.09;5082799;28;20028;-74
2021/12/01 11:00:26;;;;;;;4.97;0.70;;;;;;;8.30;93.07;99181.88;5086883;28;20111;-73
2021/12/01 11:02:54;;;;;;;4.43;0.65;;;;;;;8.23;93.95;99185.22;5083636;28;20024;-74
2021/12/01 11:05:53;;;;;;;5.18;1.23;;;;;;;8.22;95.30;99183.50;5083151;28;20036;-75
2021/12/01 11:08:20;;;;;;;5.30;0.82;;;;;;;8.24;95.02;99185.22;5083864;28;20081;-74
2021/12/01 11:11:03;;;;;;;6.47;1.15;;;;;;;8.08;96.71;99178.25;5086724;28;20056;-74
2021/12/01 11:13:29;;;;;;;8.02;1.10;;;;;;;8.09;96.92;99186.78;5087918;28;20386;-74
2021/12/01 11:15:56;;;;;;;7.28;1.00;;;;;;;8.03;96.12;99185.84;5088651;28;20040;-74
2021/12/01 11:18:25;;;;;;;4.88;1.20;;;;;;;8.04;96.40;99191.84;5087932;28;20200;-72
2021/12/01 11:20:55;;;;;;;6.57;1.08;;;;;;;8.04;95.35;99194.38;5090838;28;20032;-73
2021/12/01 11:23:40;;;;;;;8.02;1.40;;;;;;;8.17;97.03;99191.13;5072809;28;20543;-71
2021/12/01 11:26:14;;;;;;;6.53;1.02;;;;;;;8.32;93.39;99205.81;5094981;28;20039;-74
2021/12/01 11:28:43;;;;;;;4.75;0.85;;;;;;;8.28;93.79;99197.22;5091248;28;20024;-72
2021/12/01 11:31:14;;;;;;;5.28;0.93;;;;;;;8.20;95.39;99180.94;5069714;28;20050;-71
2021/12/01 11:33:44;;;;;;;8.98;2.70;;;;;;;8.28;92.83;99181.84;5090688;28;20078;-73
2021/12/01 11:36:13;;;;;;;8.98;1.33;;;;;;;8.37;93.26;99190.50;5090938;28;20044;-73
2021/12/01 11:38:38;;;;;;;7.78;1.17;;;;;;;8.41;94.08;99185.44;5085083;28;20372;-72
2021/12/01 11:41:07;;;;;;;5.82;1.10;;;;;;;8.45;95.70;99179.50;5089778;28;20049;-72